sensor_id;sensor_type;location;lat;lon;timestamp;temperature;humidity
16964;DHT22;8598;50.508;10.436;2023-02-12T00:01:33;2.10;99.90
16964;DHT22;8598;50.508;10.436;2023-02-12T00:04:00;2.10;99.90
16964;DHT22;8598;50.508;10.436;2023-02-12T00:06:28;2.10;99.90
16964;DHT22;8598;50.508;10.436;2023-02-12T00:08:56;2.10;99.90
16964;DHT22;8598;50.508;10.436;2023-02-12T00:11:24;2.10;99.90
16964;DHT22;8598;50.508;10.436;2023-02-12T00:13:52;2.10;99.90
16964;DHT22;8598;50.508;10.436;2023-02-12T00:16:22;2.10;99.90
16964;DHT22;8598;50.508;10.436;2023-02-12T00:18:51;2.10;99.90
16964;DHT22;8598;50.508;10.436;2023-02-12T00:21:18;2.10;99.90
16964;DHT22;8598;50.508;10.436;2023-02-12T00:23:46;2.10;99.90
16964;DHT22;8598;50.508;10.436;2023-02-12T00:26:14;2.20;99.90
16964;DHT22;8598;50.508;10.436;2023-02-12T00:28:42;2.10;99.90
16964;DHT22;8598;50.508;10.436;2023-02-12T00:31:10;2.10;99.90
16964;DHT22;8598;50.508;10.436;2023-02-12T00:33:37;2.10;99.90
16964;DHT22;8598;50.508;10.436;2023-02-12T00:36:05;2.10;99.90
16964;DHT22;8598;50.508;10.436;2023-02-12T00:38:32;2.10;99.90
16964;DHT22;8598;50.508;10.436;2023-02-12T00:41:00;2.10;99.90
16964;DHT22;8598;50.508;10.436;2023-02-12T00:43:27;2.10;99.90
16964;DHT22;8598;50.508;10.436;2023-02-12T00:45:53;2.10;99.90
16964;DHT22;8598;50.508;10.436;2023-02-12T00:48:20;2.10;99.90
16964;DHT22;8598;50.508;10.436;2023-02-12T00:50:47;2.10;99.90
16964;DHT22;8598;50.508;10.436;2023-02-12T00:53:15;2.10;99.90
16964;DHT22;8598;50.508;10.436;2023-02-12T00:55:42;2.10;99.90
16964;DHT22;8598;50.508;10.436;2023-02-12T00:58:11;2.10;99.90
16964;DHT22;8598;50.508;10.436;2023-02-12T01:00:37;2.10;99.90
16964;DHT22;8598;50.508;10.436;2023-02-12T01:03:04;2.10;99.90
16964;DHT22;8598;50.508;10.436;2023-02-12T01:05:31;2.10;99.90
16964;DHT22;8598;50.508;10.436;2023-02-12T01:07:58;2.10;99.90
16964;DHT22;8598;50.508;10.436;2023-02-12T01:10:25;2.20;99.90
16964;DHT22;8598;50.508;10.436;2023-02-12T01:12:51;2.20;99.90
16964;DHT22;8598;50.508;10.436;2023-02-12T01:15:20;2.20;99.90
16964;DHT22;8598;50.508;10.436;2023-02-12T01:17:47;2.20;99.90
16964;DHT22;8598;50.508;10.436;2023-02-12T01:20:15;2.20;99.90
16964;DHT22;8598;50.508;10.436;2023-02-12T01:22:42;1.80;99.90
16964;DHT22;8598;50.508;10.436;2023-02-12T01:25:10;2.20;99.90
16964;DHT22;8598;50.508;10.436;2023-02-12T01:27:37;2.10;99.90
16964;DHT22;8598;50.508;10.436;2023-02-12T01:30:05;2.10;99.90
16964;DHT22;8598;50.508;10.436;2023-02-12T01:32:34;2.20;99.90
16964;DHT22;8598;50.508;10.436;2023-02-12T01:35:01;2.20;99.90
16964;DHT22;8598;50.508;10.436;2023-02-12T01:37:28;2.20;99.90
16964;DHT22;8598;50.508;10.436;2023-02-12T01:39:55;2.20;99.90
16964;DHT22;8598;50.508;10.436;2023-02-12T01:42:21;2.20;99.90
16964;DHT22;8598;50.508;10.436;2023-02-12T01:47:49;2.20;99.90
16964;DHT22;8598;50.508;10.436;2023-02-12T01:50:18;2.10;99.90
16964;DHT22;8598;50.508;10.436;2023-02-12T01:52:48;2.10;99.90
16964;DHT22;8598;50.508;10.436;2023-02-12T01:55:16;2.10;99.90
16964;DHT22;8598;50.508;10.436;2023-02-12T01:57:45;2.10;99.90
16964;DHT22;8598;50.508;10.436;2023-02-12T02:00:15;2.60;99.90
16964;DHT22;8598;50.508;10.436;2023-02-12T02:02:45;2.10;99.90
16964;DHT22;8598;50.508;10.436;2023-02-12T02:05:17;2.10;99.90
16964;DHT22;8598;50.508;10.436;2023-02-12T02:07:48;2.10;99.90
16964;DHT22;8598;50.508;10.436;2023-02-12T02:10:15;2.10;99.90
16964;DHT22;8598;50.508;10.436;2023-02-12T02:12:41;2.20;99.90
16964;DHT22;8598;50.508;10.436;2023-02-12T02:15:22;2.60;99.90
16964;DHT22;8598;50.508;10.436;2023-02-12T02:17:52;2.20;99.90
16964;DHT22;8598;50.508;10.436;2023-02-12T02:20:41;2.20;99.90
16964;DHT22;8598;50.508;10.436;2023-02-12T02:23:39;2.20;99.90
16964;DHT22;8598;50.508;10.436;2023-02-12T02:29:37;2.20;99.90
16964;DHT22;8598;50.508;10.436;2023-02-12T02:32:12;2.20;99.90
16964;DHT22;8598;50.508;10.436;2023-02-12T02:34:48;2.20;99.90
16964;DHT22;8598;50.508;10.436;2023-02-12T02:37:18;2.10;99.90
16964;DHT22;8598;50.508;10.436;2023-02-12T02:39:49;2.10;99.90
16964;DHT22;8598;50.508;10.436;2023-02-12T02:42:22;2.10;99.90
16964;DHT22;8598;50.508;10.436;2023-02-12T02:44:52;2.10;99.90
16964;DHT22;8598;50.508;10.436;2023-02-12T02:47:24;2.10;99.90
16964;DHT22;8598;50.508;10.436;2023-02-12T02:49:55;2.10;99.90
16964;DHT22;8598;50.508;10.436;2023-02-12T02:52:28;2.20;99.90
16964;DHT22;8598;50.508;10.436;2023-02-12T02:55:01;2.10;99.90
16964;DHT22;8598;50.508;10.436;2023-02-12T02:57:33;2.10;99.90
16964;DHT22;8598;50.508;10.436;2023-02-12T03:00:10;2.10;99.90
16964;DHT22;8598;50.508;10.436;2023-02-12T03:02:43;2.10;99.90
16964;DHT22;8598;50.508;10.436;2023-02-12T03:05:16;2.20;99.90
16964;DHT22;8598;50.508;10.436;2023-02-12T03:07:47;2.20;99.90
16964;DHT22;8598;50.508;10.436;2023-02-12T03:10:17;2.20;99.90
16964;DHT22;8598;50.508;10.436;2023-02-12T03:12:49;2.20;99.90
16964;DHT22;8598;50.508;10.436;2023-02-12T03:15:21;2.20;99.90
16964;DHT22;8598;50.508;10.436;2023-02-12T03:17:51;2.20;99.90
16964;DHT22;8598;50.508;10.436;2023-02-12T03:20:19;2.20;99.90
16964;DHT22;8598;50.508;10.436;2023-02-12T03:22:50;2.20;99.90
16964;DHT22;8598;50.508;10.436;2023-02-12T03:25:21;2.30;99.90
16964;DHT22;8598;50.508;10.436;2023-02-12T03:27:55;2.20;99.90
16964;DHT22;8598;50.508;10.436;2023-02-12T03:30:24;2.20;99.90
16964;DHT22;8598;50.508;10.436;2023-02-12T03:33:02;2.20;99.90
16964;DHT22;8598;50.508;10.436;2023-02-12T03:35:34;2.20;99.90
16964;DHT22;8598;50.508;10.436;2023-02-12T03:38:10;2.20;99.90
16964;DHT22;8598;50.508;10.436;2023-02-12T03:40:44;2.20;99.90
16964;DHT22;8598;50.508;10.436;2023-02-12T03:43:18;2.20;99.90
16964;DHT22;8598;50.508;10.436;2023-02-12T03:45:51;2.20;99.90
16964;DHT22;8598;50.508;10.436;2023-02-12T03:48:22;2.20;99.90
16964;DHT22;8598;50.508;10.436;2023-02-12T03:50:52;2.20;99.90
16964;DHT22;8598;50.508;10.436;2023-02-12T03:53:20;2.10;99.90
16964;DHT22;8598;50.508;10.436;2023-02-12T03:55:50;2.10;99.90
16964;DHT22;8598;50.508;10.436;2023-02-12T03:58:20;2.10;99.90
16964;DHT22;8598;50.508;10.436;2023-02-12T04:00:49;2.10;99.90
16964;DHT22;8598;50.508;10.436;2023-02-12T04:03:16;2.10;99.90
16964;DHT22;8598;50.508;10.436;2023-02-12T04:05:44;2.10;99.90
16964;DHT22;8598;50.508;10.436;2023-02-12T04:08:11;2.10;99.90
16964;DHT22;8598;50.508;10.436;2023-02-12T04:10:45;2.10;99.90
16964;DHT22;8598;50.508;10.436;2023-02-12T04:13:19;2.10;99.90
16964;DHT22;8598;50.508;10.436;2023-02-12T04:15:57;2.10;99.90
16964;DHT22;8598;50.508;10.436;2023-02-12T04:18:31;2.10;99.90
16964;DHT22;8598;50.508;10.436;2023-02-12T04:21:07;2.10;99.90
16964;DHT22;8598;50.508;10.436;2023-02-12T04:23:43;2.10;99.90
16964;DHT22;8598;50.508;10.436;2023-02-12T04:26:18;2.20;99.90
16964;DHT22;8598;50.508;10.436;2023-02-12T04:28:56;2.20;99.90
16964;DHT22;8598;50.508;10.436;2023-02-12T04:31:29;2.20;99.90
16964;DHT22;8598;50.508;10.436;2023-02-12T04:34:02;2.20;99.90
16964;DHT22;8598;50.508;10.436;2023-02-12T04:36:34;2.20;99.90
16964;DHT22;8598;50.508;10.436;2023-02-12T04:39:04;2.20;99.90
16964;DHT22;8598;50.508;10.436;2023-02-12T04:41:33;2.30;99.90
16964;DHT22;8598;50.508;10.436;2023-02-12T04:44:13;2.20;99.90
16964;DHT22;8598;50.508;10.436;2023-02-12T04:46:39;2.20;99.90
16964;DHT22;8598;50.508;10.436;2023-02-12T04:49:07;2.30;99.90
16964;DHT22;8598;50.508;10.436;2023-02-12T04:51:39;2.20;99.90
16964;DHT22;8598;50.508;10.436;2023-02-12T04:54:06;2.20;99.90
16964;DHT22;8598;50.508;10.436;2023-02-12T04:56:32;2.20;99.90
16964;DHT22;8598;50.508;10.436;2023-02-12T04:58:59;2.20;99.90
16964;DHT22;8598;50.508;10.436;2023-02-12T05:01:26;2.20;99.90
16964;DHT22;8598;50.508;10.436;2023-02-12T05:03:53;2.20;99.90
16964;DHT22;8598;50.508;10.436;2023-02-12T05:06:19;2.20;99.90
16964;DHT22;8598;50.508;10.436;2023-02-12T05:08:47;2.20;99.90
16964;DHT22;8598;50.508;10.436;2023-02-12T05:11:14;2.20;99.90
16964;DHT22;8598;50.508;10.436;2023-02-12T05:13:40;2.20;99.90
16964;DHT22;8598;50.508;10.436;2023-02-12T05:16:07;2.30;99.90
16964;DHT22;8598;50.508;10.436;2023-02-12T05:18:34;2.30;99.90
16964;DHT22;8598;50.508;10.436;2023-02-12T05:21:03;2.20;99.90
16964;DHT22;8598;50.508;10.436;2023-02-12T05:23:32;2.20;99.90
16964;DHT22;8598;50.508;10.436;2023-02-12T05:26:01;2.20;99.90
16964;DHT22;8598;50.508;10.436;2023-02-12T05:28:29;2.20;99.90
16964;DHT22;8598;50.508;10.436;2023-02-12T05:30:59;2.30;99.90
16964;DHT22;8598;50.508;10.436;2023-02-12T05:33:25;2.20;99.90
16964;DHT22;8598;50.508;10.436;2023-02-12T05:35:52;2.20;99.90
16964;DHT22;8598;50.508;10.436;2023-02-12T05:38:20;2.20;99.90
16964;DHT22;8598;50.508;10.436;2023-02-12T05:40:46;2.20;99.90
16964;DHT22;8598;50.508;10.436;2023-02-12T05:43:14;2.20;99.90
16964;DHT22;8598;50.508;10.436;2023-02-12T05:45:41;2.20;99.90
16964;DHT22;8598;50.508;10.436;2023-02-12T05:48:09;2.20;99.90
16964;DHT22;8598;50.508;10.436;2023-02-12T05:50:36;2.30;99.90
16964;DHT22;8598;50.508;10.436;2023-02-12T05:53:02;2.30;99.90
16964;DHT22;8598;50.508;10.436;2023-02-12T05:55:29;2.40;99.90
16964;DHT22;8598;50.508;10.436;2023-02-12T05:57:55;2.40;99.90
16964;DHT22;8598;50.508;10.436;2023-02-12T06:00:23;2.40;99.90
16964;DHT22;8598;50.508;10.436;2023-02-12T06:02:50;2.30;99.90
16964;DHT22;8598;50.508;10.436;2023-02-12T06:05:17;2.30;99.90
16964;DHT22;8598;50.508;10.436;2023-02-12T06:07:43;2.30;99.90
16964;DHT22;8598;50.508;10.436;2023-02-12T06:10:10;2.30;99.90
16964;DHT22;8598;50.508;10.436;2023-02-12T06:12:37;2.20;99.90
16964;DHT22;8598;50.508;10.436;2023-02-12T06:15:04;2.30;99.90
16964;DHT22;8598;50.508;10.436;2023-02-12T06:17:32;2.20;99.90
16964;DHT22;8598;50.508;10.436;2023-02-12T06:19:59;2.30;99.90
16964;DHT22;8598;50.508;10.436;2023-02-12T06:22:26;2.30;99.90
16964;DHT22;8598;50.508;10.436;2023-02-12T06:24:53;2.30;99.90
16964;DHT22;8598;50.508;10.436;2023-02-12T06:27:20;2.30;99.90
16964;DHT22;8598;50.508;10.436;2023-02-12T06:29:46;2.30;99.90
16964;DHT22;8598;50.508;10.436;2023-02-12T06:32:13;2.20;99.90
16964;DHT22;8598;50.508;10.436;2023-02-12T06:34:41;2.20;99.90
16964;DHT22;8598;50.508;10.436;2023-02-12T06:37:07;2.30;99.90
16964;DHT22;8598;50.508;10.436;2023-02-12T06:39:34;2.30;99.90
16964;DHT22;8598;50.508;10.436;2023-02-12T06:42:00;2.30;99.90
16964;DHT22;8598;50.508;10.436;2023-02-12T06:44:27;2.30;99.90
16964;DHT22;8598;50.508;10.436;2023-02-12T06:46:54;2.30;99.90
16964;DHT22;8598;50.508;10.436;2023-02-12T06:49:22;2.30;99.90
16964;DHT22;8598;50.508;10.436;2023-02-12T06:51:50;2.30;99.90
16964;DHT22;8598;50.508;10.436;2023-02-12T06:54:17;2.30;99.90
16964;DHT22;8598;50.508;10.436;2023-02-12T06:56:44;2.40;99.90
16964;DHT22;8598;50.508;10.436;2023-02-12T06:59:13;2.40;99.90
16964;DHT22;8598;50.508;10.436;2023-02-12T07:01:40;2.40;99.90
16964;DHT22;8598;50.508;10.436;2023-02-12T07:04:06;2.40;99.90
16964;DHT22;8598;50.508;10.436;2023-02-12T07:06:34;2.40;99.90
16964;DHT22;8598;50.508;10.436;2023-02-12T07:09:03;2.50;99.90
16964;DHT22;8598;50.508;10.436;2023-02-12T07:11:31;2.50;99.90
16964;DHT22;8598;50.508;10.436;2023-02-12T07:13:59;2.50;99.90
16964;DHT22;8598;50.508;10.436;2023-02-12T07:16:26;2.50;99.90
16964;DHT22;8598;50.508;10.436;2023-02-12T07:18:53;2.50;99.90
16964;DHT22;8598;50.508;10.436;2023-02-12T07:21:20;2.50;99.90
16964;DHT22;8598;50.508;10.436;2023-02-12T07:23:48;2.50;99.90
16964;DHT22;8598;50.508;10.436;2023-02-12T07:26:17;2.50;99.90
16964;DHT22;8598;50.508;10.436;2023-02-12T07:28:44;2.50;99.90
16964;DHT22;8598;50.508;10.436;2023-02-12T07:31:13;2.50;99.90
16964;DHT22;8598;50.508;10.436;2023-02-12T07:33:40;2.60;99.90
16964;DHT22;8598;50.508;10.436;2023-02-12T07:36:09;2.60;99.90
16964;DHT22;8598;50.508;10.436;2023-02-12T07:38:36;2.60;99.90
16964;DHT22;8598;50.508;10.436;2023-02-12T07:41:08;2.60;99.90
16964;DHT22;8598;50.508;10.436;2023-02-12T07:43:38;2.70;99.90
16964;DHT22;8598;50.508;10.436;2023-02-12T07:46:09;2.70;99.90
16964;DHT22;8598;50.508;10.436;2023-02-12T07:48:36;2.70;99.90
16964;DHT22;8598;50.508;10.436;2023-02-12T07:51:05;2.80;99.90
16964;DHT22;8598;50.508;10.436;2023-02-12T07:53:32;2.70;99.90
16964;DHT22;8598;50.508;10.436;2023-02-12T07:56:10;2.70;99.90
16964;DHT22;8598;50.508;10.436;2023-02-12T07:58:39;2.70;99.90
16964;DHT22;8598;50.508;10.436;2023-02-12T08:01:14;2.70;99.90
16964;DHT22;8598;50.508;10.436;2023-02-12T08:03:41;2.80;99.90
16964;DHT22;8598;50.508;10.436;2023-02-12T08:06:09;2.80;99.90
16964;DHT22;8598;50.508;10.436;2023-02-12T08:08:36;2.90;99.90
16964;DHT22;8598;50.508;10.436;2023-02-12T08:11:04;2.90;99.90
16964;DHT22;8598;50.508;10.436;2023-02-12T08:13:31;3.00;99.90
16964;DHT22;8598;50.508;10.436;2023-02-12T08:16:04;3.10;99.90
16964;DHT22;8598;50.508;10.436;2023-02-12T08:18:33;3.10;99.90
16964;DHT22;8598;50.508;10.436;2023-02-12T08:21:03;3.20;99.90
16964;DHT22;8598;50.508;10.436;2023-02-12T08:23:31;3.20;99.90
16964;DHT22;8598;50.508;10.436;2023-02-12T08:26:05;3.20;99.90
16964;DHT22;8598;50.508;10.436;2023-02-12T08:28:32;3.30;99.90
16964;DHT22;8598;50.508;10.436;2023-02-12T08:31:01;3.30;99.90
16964;DHT22;8598;50.508;10.436;2023-02-12T08:33:28;3.30;99.90
16964;DHT22;8598;50.508;10.436;2023-02-12T08:36:00;3.40;99.90
16964;DHT22;8598;50.508;10.436;2023-02-12T08:38:27;3.40;99.90
16964;DHT22;8598;50.508;10.436;2023-02-12T08:40:54;3.50;99.90
16964;DHT22;8598;50.508;10.436;2023-02-12T08:43:21;3.50;99.90
16964;DHT22;8598;50.508;10.436;2023-02-12T08:45:47;3.50;99.90
16964;DHT22;8598;50.508;10.436;2023-02-12T08:48:15;3.60;99.90
16964;DHT22;8598;50.508;10.436;2023-02-12T08:50:42;3.60;99.90
16964;DHT22;8598;50.508;10.436;2023-02-12T08:53:08;3.70;99.90
16964;DHT22;8598;50.508;10.436;2023-02-12T08:55:35;3.80;99.90
16964;DHT22;8598;50.508;10.436;2023-02-12T08:58:02;3.90;99.90
16964;DHT22;8598;50.508;10.436;2023-02-12T09:00:28;3.90;99.90
16964;DHT22;8598;50.508;10.436;2023-02-12T09:02:55;4.00;99.90
16964;DHT22;8598;50.508;10.436;2023-02-12T09:05:23;4.10;99.90
16964;DHT22;8598;50.508;10.436;2023-02-12T09:07:51;4.10;99.90
16964;DHT22;8598;50.508;10.436;2023-02-12T09:10:18;3.90;99.90
16964;DHT22;8598;50.508;10.436;2023-02-12T09:12:45;4.40;99.90
16964;DHT22;8598;50.508;10.436;2023-02-12T09:15:13;4.60;99.90
16964;DHT22;8598;50.508;10.436;2023-02-12T09:17:39;4.60;99.90
16964;DHT22;8598;50.508;10.436;2023-02-12T09:20:08;4.50;99.90
16964;DHT22;8598;50.508;10.436;2023-02-12T09:22:36;4.40;99.90
16964;DHT22;8598;50.508;10.436;2023-02-12T09:25:04;4.50;99.90
16964;DHT22;8598;50.508;10.436;2023-02-12T09:27:31;4.60;99.90
16964;DHT22;8598;50.508;10.436;2023-02-12T09:29:57;4.60;99.90
16964;DHT22;8598;50.508;10.436;2023-02-12T09:32:24;4.50;99.90
16964;DHT22;8598;50.508;10.436;2023-02-12T09:34:50;4.50;99.90
16964;DHT22;8598;50.508;10.436;2023-02-12T09:37:17;4.50;99.90
16964;DHT22;8598;50.508;10.436;2023-02-12T09:39:45;4.60;99.90
16964;DHT22;8598;50.508;10.436;2023-02-12T09:42:25;4.50;99.90
16964;DHT22;8598;50.508;10.436;2023-02-12T09:45:01;4.50;99.90
16964;DHT22;8598;50.508;10.436;2023-02-12T09:47:38;4.60;99.90
16964;DHT22;8598;50.508;10.436;2023-02-12T09:50:28;4.60;99.90
16964;DHT22;8598;50.508;10.436;2023-02-12T09:52:57;4.60;99.90
16964;DHT22;8598;50.508;10.436;2023-02-12T09:55:28;4.60;99.90
16964;DHT22;8598;50.508;10.436;2023-02-12T09:57:56;4.70;99.90
16964;DHT22;8598;50.508;10.436;2023-02-12T10:00:24;4.70;99.90
16964;DHT22;8598;50.508;10.436;2023-02-12T10:02:56;4.70;99.90
16964;DHT22;8598;50.508;10.436;2023-02-12T10:05:29;4.80;99.90
16964;DHT22;8598;50.508;10.436;2023-02-12T10:08:27;4.90;99.90
16964;DHT22;8598;50.508;10.436;2023-02-12T10:11:12;5.00;99.90
16964;DHT22;8598;50.508;10.436;2023-02-12T10:13:46;5.10;99.90
16964;DHT22;8598;50.508;10.436;2023-02-12T10:16:24;5.40;99.90
16964;DHT22;8598;50.508;10.436;2023-02-12T10:19:12;5.50;99.90
16964;DHT22;8598;50.508;10.436;2023-02-12T10:21:47;5.60;99.90
16964;DHT22;8598;50.508;10.436;2023-02-12T10:24:27;5.80;99.90
16964;DHT22;8598;50.508;10.436;2023-02-12T10:27:01;5.90;99.90
16964;DHT22;8598;50.508;10.436;2023-02-12T10:29:31;6.00;99.90
16964;DHT22;8598;50.508;10.436;2023-02-12T10:32:01;6.00;99.90
16964;DHT22;8598;50.508;10.436;2023-02-12T10:34:32;6.00;99.90
16964;DHT22;8598;50.508;10.436;2023-02-12T10:37:02;6.20;99.90
16964;DHT22;8598;50.508;10.436;2023-02-12T10:39:34;6.30;99.90
16964;DHT22;8598;50.508;10.436;2023-02-12T10:42:08;6.40;99.90
16964;DHT22;8598;50.508;10.436;2023-02-12T10:44:37;6.60;99.90
16964;DHT22;8598;50.508;10.436;2023-02-12T10:47:03;6.40;99.90
16964;DHT22;8598;50.508;10.436;2023-02-12T10:49:31;6.40;99.90
16964;DHT22;8598;50.508;10.436;2023-02-12T10:52:08;6.50;99.90
16964;DHT22;8598;50.508;10.436;2023-02-12T10:54:39;6.50;99.90
16964;DHT22;8598;50.508;10.436;2023-02-12T10:57:14;6.60;99.90
16964;DHT22;8598;50.508;10.436;2023-02-12T10:59:44;6.50;99.90
16964;DHT22;8598;50.508;10.436;2023-02-12T11:02:23;6.50;99.90
16964;DHT22;8598;50.508;10.436;2023-02-12T11:04:51;6.50;99.90
16964;DHT22;8598;50.508;10.436;2023-02-12T11:07:19;6.60;99.90
16964;DHT22;8598;50.508;10.436;2023-02-12T11:09:47;6.60;99.90
16964;DHT22;8598;50.508;10.436;2023-02-12T11:12:25;6.70;99.90
16964;DHT22;8598;50.508;10.436;2023-02-12T11:14:56;6.60;99.90
16964;DHT22;8598;50.508;10.436;2023-02-12T11:17:26;6.60;99.90
16964;DHT22;8598;50.508;10.436;2023-02-12T11:20:19;6.60;99.90
16964;DHT22;8598;50.508;10.436;2023-02-12T11:22:56;6.60;99.90
16964;DHT22;8598;50.508;10.436;2023-02-12T11:25:25;6.80;99.90
16964;DHT22;8598;50.508;10.436;2023-02-12T11:28:16;7.00;99.90
16964;DHT22;8598;50.508;10.436;2023-02-12T11:30:52;7.10;99.90
16964;DHT22;8598;50.508;10.436;2023-02-12T11:33:30;7.20;99.90
16964;DHT22;8598;50.508;10.436;2023-02-12T11:35:59;7.40;99.90
16964;DHT22;8598;50.508;10.436;2023-02-12T11:38:30;7.60;99.90
16964;DHT22;8598;50.508;10.436;2023-02-12T11:41:05;7.60;99.90
16964;DHT22;8598;50.508;10.436;2023-02-12T11:43:35;7.60;99.90
16964;DHT22;8598;50.508;10.436;2023-02-12T11:46:04;7.80;99.90
16964;DHT22;8598;50.508;10.436;2023-02-12T11:48:34;7.70;99.90
16964;DHT22;8598;50.508;10.436;2023-02-12T11:51:04;7.60;99.90
16964;DHT22;8598;50.508;10.436;2023-02-12T11:53:36;7.60;99.90
16964;DHT22;8598;50.508;10.436;2023-02-12T11:56:06;7.60;99.90
16964;DHT22;8598;50.508;10.436;2023-02-12T11:58:34;7.60;99.90
16964;DHT22;8598;50.508;10.436;2023-02-12T12:01:09;7.70;99.90
16964;DHT22;8598;50.508;10.436;2023-02-12T12:03:42;7.70;99.90
16964;DHT22;8598;50.508;10.436;2023-02-12T12:06:20;7.70;99.90
16964;DHT22;8598;50.508;10.436;2023-02-12T12:08:50;7.90;99.90
16964;DHT22;8598;50.508;10.436;2023-02-12T12:11:20;7.90;99.90
16964;DHT22;8598;50.508;10.436;2023-02-12T12:13:56;7.70;99.90
16964;DHT22;8598;50.508;10.436;2023-02-12T12:16:28;7.80;99.90
16964;DHT22;8598;50.508;10.436;2023-02-12T12:19:17;7.80;99.90
16964;DHT22;8598;50.508;10.436;2023-02-12T12:22:28;7.60;99.90
16964;DHT22;8598;50.508;10.436;2023-02-12T12:24:59;7.60;99.90
16964;DHT22;8598;50.508;10.436;2023-02-12T12:27:34;7.60;99.90
16964;DHT22;8598;50.508;10.436;2023-02-12T12:30:27;7.60;99.90
16964;DHT22;8598;50.508;10.436;2023-02-12T12:33:00;7.40;99.90
16964;DHT22;8598;50.508;10.436;2023-02-12T12:35:44;7.30;99.90
16964;DHT22;8598;50.508;10.436;2023-02-12T12:38:21;7.40;99.90
16964;DHT22;8598;50.508;10.436;2023-02-12T12:40:59;7.50;99.90
16964;DHT22;8598;50.508;10.436;2023-02-12T12:43:35;7.60;99.90
16964;DHT22;8598;50.508;10.436;2023-02-12T12:46:25;7.50;99.90
16964;DHT22;8598;50.508;10.436;2023-02-12T12:49:13;7.50;99.90
16964;DHT22;8598;50.508;10.436;2023-02-12T12:52:02;7.40;99.90
16964;DHT22;8598;50.508;10.436;2023-02-12T12:54:43;7.50;99.90
16964;DHT22;8598;50.508;10.436;2023-02-12T12:57:25;7.50;99.90
16964;DHT22;8598;50.508;10.436;2023-02-12T13:00:24;7.60;99.90
16964;DHT22;8598;50.508;10.436;2023-02-12T13:03:09;7.60;99.90
16964;DHT22;8598;50.508;10.436;2023-02-12T13:06:04;7.60;99.90
16964;DHT22;8598;50.508;10.436;2023-02-12T13:08:47;7.70;99.90
16964;DHT22;8598;50.508;10.436;2023-02-12T13:11:26;7.70;99.90
16964;DHT22;8598;50.508;10.436;2023-02-12T13:14:06;7.70;99.90
16964;DHT22;8598;50.508;10.436;2023-02-12T13:16:40;7.70;99.90
16964;DHT22;8598;50.508;10.436;2023-02-12T13:19:18;7.60;99.90
16964;DHT22;8598;50.508;10.436;2023-02-12T13:21:52;7.70;99.90
16964;DHT22;8598;50.508;10.436;2023-02-12T13:24:24;7.70;99.90
16964;DHT22;8598;50.508;10.436;2023-02-12T13:26:57;7.80;99.90
16964;DHT22;8598;50.508;10.436;2023-02-12T13:29:27;7.90;99.90
16964;DHT22;8598;50.508;10.436;2023-02-12T13:31:58;7.80;99.90
16964;DHT22;8598;50.508;10.436;2023-02-12T13:34:28;7.70;99.90
16964;DHT22;8598;50.508;10.436;2023-02-12T13:36:57;7.70;99.90
16964;DHT22;8598;50.508;10.436;2023-02-12T13:39:29;7.70;99.90
16964;DHT22;8598;50.508;10.436;2023-02-12T13:42:03;7.70;99.90
16964;DHT22;8598;50.508;10.436;2023-02-12T13:44:39;7.70;99.90
16964;DHT22;8598;50.508;10.436;2023-02-12T13:47:14;7.70;99.90
16964;DHT22;8598;50.508;10.436;2023-02-12T13:49:48;7.70;99.90
16964;DHT22;8598;50.508;10.436;2023-02-12T13:52:24;7.70;99.90
16964;DHT22;8598;50.508;10.436;2023-02-12T13:54:59;7.60;99.90
16964;DHT22;8598;50.508;10.436;2023-02-12T13:57:28;7.60;99.90
16964;DHT22;8598;50.508;10.436;2023-02-12T13:59:55;7.50;99.90
16964;DHT22;8598;50.508;10.436;2023-02-12T14:02:46;7.50;99.90
16964;DHT22;8598;50.508;10.436;2023-02-12T14:05:20;7.50;99.90
16964;DHT22;8598;50.508;10.436;2023-02-12T14:07:51;7.40;99.90
16964;DHT22;8598;50.508;10.436;2023-02-12T14:10:21;7.40;99.90
16964;DHT22;8598;50.508;10.436;2023-02-12T14:12:48;7.40;99.90
16964;DHT22;8598;50.508;10.436;2023-02-12T14:15:28;7.40;99.90
16964;DHT22;8598;50.508;10.436;2023-02-12T14:18:04;7.40;99.90
16964;DHT22;8598;50.508;10.436;2023-02-12T14:20:34;7.40;99.90
16964;DHT22;8598;50.508;10.436;2023-02-12T14:23:21;7.40;99.90
16964;DHT22;8598;50.508;10.436;2023-02-12T14:25:56;7.40;99.90
16964;DHT22;8598;50.508;10.436;2023-02-12T14:28:28;7.30;99.90
16964;DHT22;8598;50.508;10.436;2023-02-12T14:37:37;7.20;99.90
16964;DHT22;8598;50.508;10.436;2023-02-12T14:40:29;7.30;99.90
16964;DHT22;8598;50.508;10.436;2023-02-12T14:42:56;7.30;99.90
16964;DHT22;8598;50.508;10.436;2023-02-12T14:45:31;7.30;99.90
16964;DHT22;8598;50.508;10.436;2023-02-12T14:47:59;7.30;99.90
16964;DHT22;8598;50.508;10.436;2023-02-12T14:50:40;7.30;99.90
16964;DHT22;8598;50.508;10.436;2023-02-12T14:53:26;7.30;99.90
16964;DHT22;8598;50.508;10.436;2023-02-12T14:55:55;7.20;99.90
16964;DHT22;8598;50.508;10.436;2023-02-12T14:58:23;7.20;99.90
16964;DHT22;8598;50.508;10.436;2023-02-12T15:00:54;7.20;99.90
16964;DHT22;8598;50.508;10.436;2023-02-12T15:03:24;7.10;99.90
16964;DHT22;8598;50.508;10.436;2023-02-12T15:05:58;7.10;99.90
16964;DHT22;8598;50.508;10.436;2023-02-12T15:08:33;7.10;99.90
16964;DHT22;8598;50.508;10.436;2023-02-12T15:11:08;7.10;99.90
16964;DHT22;8598;50.508;10.436;2023-02-12T15:13:46;7.00;99.90
16964;DHT22;8598;50.508;10.436;2023-02-12T15:16:19;7.00;99.90
16964;DHT22;8598;50.508;10.436;2023-02-12T15:18:51;6.90;99.90
16964;DHT22;8598;50.508;10.436;2023-02-12T15:21:22;6.90;99.90
16964;DHT22;8598;50.508;10.436;2023-02-12T15:24:01;6.90;99.90
16964;DHT22;8598;50.508;10.436;2023-02-12T15:26:29;6.90;99.90
16964;DHT22;8598;50.508;10.436;2023-02-12T15:28:57;6.80;99.90
16964;DHT22;8598;50.508;10.436;2023-02-12T15:31:26;6.70;99.90
16964;DHT22;8598;50.508;10.436;2023-02-12T15:33:56;6.70;99.90
16964;DHT22;8598;50.508;10.436;2023-02-12T15:36:24;6.70;99.90
16964;DHT22;8598;50.508;10.436;2023-02-12T15:38:54;6.70;99.90
16964;DHT22;8598;50.508;10.436;2023-02-12T15:41:36;6.60;99.90
16964;DHT22;8598;50.508;10.436;2023-02-12T15:44:18;6.50;99.90
16964;DHT22;8598;50.508;10.436;2023-02-12T15:47:09;6.50;99.90
16964;DHT22;8598;50.508;10.436;2023-02-12T15:49:38;6.50;99.90
16964;DHT22;8598;50.508;10.436;2023-02-12T15:52:09;6.50;99.90
16964;DHT22;8598;50.508;10.436;2023-02-12T15:54:37;6.40;99.90
16964;DHT22;8598;50.508;10.436;2023-02-12T15:57:10;6.40;99.90
16964;DHT22;8598;50.508;10.436;2023-02-12T15:59:38;6.30;99.90
16964;DHT22;8598;50.508;10.436;2023-02-12T16:02:17;6.30;99.90
16964;DHT22;8598;50.508;10.436;2023-02-12T16:04:44;6.40;99.90
16964;DHT22;8598;50.508;10.436;2023-02-12T16:07:11;6.30;99.90
16964;DHT22;8598;50.508;10.436;2023-02-12T16:09:39;6.30;99.90
16964;DHT22;8598;50.508;10.436;2023-02-12T16:12:13;6.30;99.90
16964;DHT22;8598;50.508;10.436;2023-02-12T16:14:41;6.20;99.90
16964;DHT22;8598;50.508;10.436;2023-02-12T16:17:20;6.10;99.90
16964;DHT22;8598;50.508;10.436;2023-02-12T16:19:53;6.10;99.90
16964;DHT22;8598;50.508;10.436;2023-02-12T16:22:23;6.10;99.90
16964;DHT22;8598;50.508;10.436;2023-02-12T16:24:53;6.10;99.90